sensor_id;sensor_type;location;lat;lon;timestamp;P1;durP1;ratioP1;P2;durP2;ratioP2
3355;SDS011;1691;52.486;13.374;2022-12-07T00:01:39;7.90;;;7.10;;
3355;SDS011;1691;52.486;13.374;2022-12-07T00:04:10;8.00;;;7.23;;
3355;SDS011;1691;52.486;13.374;2022-12-07T00:06:44;11.63;;;6.90;;
3355;SDS011;1691;52.486;13.374;2022-12-07T00:09:14;9.17;;;8.17;;
3355;SDS011;1691;52.486;13.374;2022-12-07T00:11:43;6.93;;;6.33;;
3355;SDS011;1691;52.486;13.374;2022-12-07T00:14:15;10.93;;;7.77;;
3355;SDS011;1691;52.486;13.374;2022-12-07T00:16:43;10.73;;;8.00;;
3355;SDS011;1691;52.486;13.374;2022-12-07T00:19:11;7.47;;;6.87;;
3355;SDS011;1691;52.486;13.374;2022-12-07T00:21:40;8.03;;;7.23;;
3355;SDS011;1691;52.486;13.374;2022-12-07T00:24:07;9.03;;;8.20;;
3355;SDS011;1691;52.486;13.374;2022-12-07T00:26:37;8.53;;;7.20;;
3355;SDS011;1691;52.486;13.374;2022-12-07T00:29:06;9.80;;;7.17;;
3355;SDS011;1691;52.486;13.374;2022-12-07T00:31:39;7.50;;;6.73;;
3355;SDS011;1691;52.486;13.374;2022-12-07T00:34:07;7.67;;;7.07;;
3355;SDS011;1691;52.486;13.374;2022-12-07T00:36:39;8.10;;;7.30;;
3355;SDS011;1691;52.486;13.374;2022-12-07T00:39:06;6.83;;;6.33;;
3355;SDS011;1691;52.486;13.374;2022-12-07T00:41:33;6.60;;;6.10;;
3355;SDS011;1691;52.486;13.374;2022-12-07T00:44:01;6.17;;;5.67;;
3355;SDS011;1691;52.486;13.374;2022-12-07T00:46:28;6.37;;;5.97;;
3355;SDS011;1691;52.486;13.374;2022-12-07T00:48:56;7.40;;;6.80;;
3355;SDS011;1691;52.486;13.374;2022-12-07T00:51:23;6.90;;;6.40;;
3355;SDS011;1691;52.486;13.374;2022-12-07T00:53:52;6.43;;;5.90;;
3355;SDS011;1691;52.486;13.374;2022-12-07T00:56:24;6.47;;;6.07;;
3355;SDS011;1691;52.486;13.374;2022-12-07T00:58:56;6.20;;;5.80;;
3355;SDS011;1691;52.486;13.374;2022-12-07T01:01:28;6.00;;;5.57;;
3355;SDS011;1691;52.486;13.374;2022-12-07T01:03:58;6.07;;;5.73;;
3355;SDS011;1691;52.486;13.374;2022-12-07T01:06:27;6.33;;;5.83;;
3355;SDS011;1691;52.486;13.374;2022-12-07T01:08:55;6.13;;;5.73;;
3355;SDS011;1691;52.486;13.374;2022-12-07T01:11:24;8.93;;;6.37;;
3355;SDS011;1691;52.486;13.374;2022-12-07T01:13:55;6.57;;;6.10;;
3355;SDS011;1691;52.486;13.374;2022-12-07T01:16:25;6.23;;;5.83;;
3355;SDS011;1691;52.486;13.374;2022-12-07T01:18:54;6.07;;;5.67;;
3355;SDS011;1691;52.486;13.374;2022-12-07T01:21:24;5.70;;;5.30;;
3355;SDS011;1691;52.486;13.374;2022-12-07T01:23:53;5.80;;;5.40;;
3355;SDS011;1691;52.486;13.374;2022-12-07T01:26:22;6.33;;;6.00;;
3355;SDS011;1691;52.486;13.374;2022-12-07T01:28:51;5.13;;;4.83;;
3355;SDS011;1691;52.486;13.374;2022-12-07T01:31:22;5.07;;;4.77;;
3355;SDS011;1691;52.486;13.374;2022-12-07T01:33:52;4.63;;;4.43;;
3355;SDS011;1691;52.486;13.374;2022-12-07T01:38:57;5.30;;;5.00;;
3355;SDS011;1691;52.486;13.374;2022-12-07T01:41:34;4.23;;;4.03;;
3355;SDS011;1691;52.486;13.374;2022-12-07T01:44:17;5.07;;;4.77;;
3355;SDS011;1691;52.486;13.374;2022-12-07T01:47:00;4.93;;;4.63;;
3355;SDS011;1691;52.486;13.374;2022-12-07T01:52:20;4.80;;;4.47;;
3355;SDS011;1691;52.486;13.374;2022-12-07T01:54:59;6.67;;;4.77;;
3355;SDS011;1691;52.486;13.374;2022-12-07T01:57:32;5.30;;;5.00;;
3355;SDS011;1691;52.486;13.374;2022-12-07T02:00:01;4.30;;;4.10;;
3355;SDS011;1691;52.486;13.374;2022-12-07T02:02:33;4.63;;;4.43;;
3355;SDS011;1691;52.486;13.374;2022-12-07T02:05:04;4.07;;;3.87;;
3355;SDS011;1691;52.486;13.374;2022-12-07T02:07:34;4.23;;;4.03;;
3355;SDS011;1691;52.486;13.374;2022-12-07T02:10:18;4.80;;;4.50;;
3355;SDS011;1691;52.486;13.374;2022-12-07T02:12:58;5.17;;;4.87;;
3355;SDS011;1691;52.486;13.374;2022-12-07T02:21:06;4.13;;;3.93;;
3355;SDS011;1691;52.486;13.374;2022-12-07T02:30:34;4.37;;;4.27;;
3355;SDS011;1691;52.486;13.374;2022-12-07T02:33:14;5.17;;;4.87;;
3355;SDS011;1691;52.486;13.374;2022-12-07T02:35:51;4.97;;;4.57;;
3355;SDS011;1691;52.486;13.374;2022-12-07T02:38:40;5.00;;;4.70;;
3355;SDS011;1691;52.486;13.374;2022-12-07T02:41:26;5.67;;;5.27;;
3355;SDS011;1691;52.486;13.374;2022-12-07T02:44:00;4.10;;;3.90;;
3355;SDS011;1691;52.486;13.374;2022-12-07T02:46:37;4.60;;;4.40;;
3355;SDS011;1691;52.486;13.374;2022-12-07T02:49:13;6.30;;;4.90;;
3355;SDS011;1691;52.486;13.374;2022-12-07T02:51:44;5.23;;;4.70;;
3355;SDS011;1691;52.486;13.374;2022-12-07T02:54:14;4.97;;;4.77;;
3355;SDS011;1691;52.486;13.374;2022-12-07T03:02:44;4.73;;;4.53;;
3355;SDS011;1691;52.486;13.374;2022-12-07T03:08:06;5.33;;;5.03;;
3355;SDS011;1691;52.486;13.374;2022-12-07T03:19:04;6.20;;;5.73;;
3355;SDS011;1691;52.486;13.374;2022-12-07T03:21:46;5.47;;;5.10;;
3355;SDS011;1691;52.486;13.374;2022-12-07T03:24:21;5.63;;;5.33;;
3355;SDS011;1691;52.486;13.374;2022-12-07T03:27:00;6.27;;;5.73;;
3355;SDS011;1691;52.486;13.374;2022-12-07T03:29:38;5.73;;;5.33;;
3355;SDS011;1691;52.486;13.374;2022-12-07T03:35:02;5.67;;;5.13;;
3355;SDS011;1691;52.486;13.374;2022-12-07T03:37:41;5.67;;;5.20;;
3355;SDS011;1691;52.486;13.374;2022-12-07T03:42:56;5.83;;;5.40;;
3355;SDS011;1691;52.486;13.374;2022-12-07T03:45:37;5.70;;;5.20;;
3355;SDS011;1691;52.486;13.374;2022-12-07T03:48:22;6.50;;;6.10;;
3355;SDS011;1691;52.486;13.374;2022-12-07T03:51:02;5.90;;;5.50;;
3355;SDS011;1691;52.486;13.374;2022-12-07T03:56:14;6.10;;;5.70;;
3355;SDS011;1691;52.486;13.374;2022-12-07T03:58:41;6.97;;;6.23;;
3355;SDS011;1691;52.486;13.374;2022-12-07T04:01:08;6.13;;;5.70;;
3355;SDS011;1691;52.486;13.374;2022-12-07T04:03:36;7.50;;;6.90;;
3355;SDS011;1691;52.486;13.374;2022-12-07T04:06:03;8.10;;;6.37;;
3355;SDS011;1691;52.486;13.374;2022-12-07T04:08:31;7.10;;;6.60;;
3355;SDS011;1691;52.486;13.374;2022-12-07T04:10:58;6.53;;;5.97;;
3355;SDS011;1691;52.486;13.374;2022-12-07T04:13:25;6.70;;;6.20;;
3355;SDS011;1691;52.486;13.374;2022-12-07T04:15:52;8.57;;;7.80;;
3355;SDS011;1691;52.486;13.374;2022-12-07T04:18:19;10.73;;;6.97;;
3355;SDS011;1691;52.486;13.374;2022-12-07T04:20:46;8.23;;;7.57;;
3355;SDS011;1691;52.486;13.374;2022-12-07T04:23:13;8.57;;;7.60;;
3355;SDS011;1691;52.486;13.374;2022-12-07T04:25:40;8.30;;;7.60;;
3355;SDS011;1691;52.486;13.374;2022-12-07T04:28:07;9.03;;;8.13;;
3355;SDS011;1691;52.486;13.374;2022-12-07T04:30:34;13.37;;;8.57;;
3355;SDS011;1691;52.486;13.374;2022-12-07T04:33:01;11.57;;;8.47;;
3355;SDS011;1691;52.486;13.374;2022-12-07T04:35:28;10.73;;;9.50;;
3355;SDS011;1691;52.486;13.374;2022-12-07T04:37:55;16.10;;;9.43;;
3355;SDS011;1691;52.486;13.374;2022-12-07T04:40:22;13.90;;;10.10;;
3355;SDS011;1691;52.486;13.374;2022-12-07T04:42:49;11.67;;;10.00;;
3355;SDS011;1691;52.486;13.374;2022-12-07T04:45:16;12.27;;;9.73;;
3355;SDS011;1691;52.486;13.374;2022-12-07T04:47:43;13.53;;;10.07;;
3355;SDS011;1691;52.486;13.374;2022-12-07T04:50:10;13.03;;;10.00;;
3355;SDS011;1691;52.486;13.374;2022-12-07T04:52:37;13.93;;;10.50;;
3355;SDS011;1691;52.486;13.374;2022-12-07T04:55:04;12.50;;;10.83;;
3355;SDS011;1691;52.486;13.374;2022-12-07T04:57:32;14.77;;;11.10;;
3355;SDS011;1691;52.486;13.374;2022-12-07T04:59:59;15.53;;;12.00;;
3355;SDS011;1691;52.486;13.374;2022-12-07T05:02:28;14.47;;;10.40;;
3355;SDS011;1691;52.486;13.374;2022-12-07T05:04:55;18.70;;;11.73;;
3355;SDS011;1691;52.486;13.374;2022-12-07T05:07:22;13.23;;;10.73;;
3355;SDS011;1691;52.486;13.374;2022-12-07T05:09:49;15.20;;;11.57;;
3355;SDS011;1691;52.486;13.374;2022-12-07T05:12:16;19.53;;;11.93;;
3355;SDS011;1691;52.486;13.374;2022-12-07T05:14:43;17.53;;;12.77;;
3355;SDS011;1691;52.486;13.374;2022-12-07T05:17:10;17.43;;;11.93;;
3355;SDS011;1691;52.486;13.374;2022-12-07T05:19:37;19.33;;;12.17;;
3355;SDS011;1691;52.486;13.374;2022-12-07T05:22:04;16.87;;;12.50;;
3355;SDS011;1691;52.486;13.374;2022-12-07T05:24:31;18.43;;;13.07;;
3355;SDS011;1691;52.486;13.374;2022-12-07T05:26:58;18.17;;;12.80;;
3355;SDS011;1691;52.486;13.374;2022-12-07T05:29:25;16.83;;;12.10;;
3355;SDS011;1691;52.486;13.374;2022-12-07T05:31:52;19.40;;;13.13;;
3355;SDS011;1691;52.486;13.374;2022-12-07T05:34:20;16.17;;;12.37;;
3355;SDS011;1691;52.486;13.374;2022-12-07T05:36:47;18.30;;;13.27;;
3355;SDS011;1691;52.486;13.374;2022-12-07T05:39:14;21.60;;;13.60;;
3355;SDS011;1691;52.486;13.374;2022-12-07T05:41:41;18.97;;;12.67;;
3355;SDS011;1691;52.486;13.374;2022-12-07T05:44:27;17.63;;;12.90;;
3355;SDS011;1691;52.486;13.374;2022-12-07T05:46:54;21.03;;;13.00;;
3355;SDS011;1691;52.486;13.374;2022-12-07T05:49:21;19.83;;;13.27;;
3355;SDS011;1691;52.486;13.374;2022-12-07T05:51:48;28.50;;;14.90;;
3355;SDS011;1691;52.486;13.374;2022-12-07T05:54:15;29.47;;;14.00;;
3355;SDS011;1691;52.486;13.374;2022-12-07T05:56:42;21.70;;;13.50;;
3355;SDS011;1691;52.486;13.374;2022-12-07T05:59:09;24.53;;;15.50;;
3355;SDS011;1691;52.486;13.374;2022-12-07T06:01:54;23.60;;;14.43;;
3355;SDS011;1691;52.486;13.374;2022-12-07T06:04:35;21.80;;;14.13;;
3355;SDS011;1691;52.486;13.374;2022-12-07T06:07:11;25.90;;;14.63;;
3355;SDS011;1691;52.486;13.374;2022-12-07T06:09:40;41.10;;;14.97;;
3355;SDS011;1691;52.486;13.374;2022-12-07T06:12:09;20.70;;;14.40;;
3355;SDS011;1691;52.486;13.374;2022-12-07T06:14:57;23.33;;;15.63;;
3355;SDS011;1691;52.486;13.374;2022-12-07T06:17:24;21.70;;;14.77;;
3355;SDS011;1691;52.486;13.374;2022-12-07T06:19:51;21.40;;;14.90;;
3355;SDS011;1691;52.486;13.374;2022-12-07T06:22:18;24.10;;;16.63;;
3355;SDS011;1691;52.486;13.374;2022-12-07T06:24:45;24.13;;;14.23;;
3355;SDS011;1691;52.486;13.374;2022-12-07T06:27:12;22.50;;;14.50;;
3355;SDS011;1691;52.486;13.374;2022-12-07T06:29:40;24.43;;;14.67;;
3355;SDS011;1691;52.486;13.374;2022-12-07T06:32:07;21.13;;;13.83;;
3355;SDS011;1691;52.486;13.374;2022-12-07T06:34:34;23.63;;;14.50;;
3355;SDS011;1691;52.486;13.374;2022-12-07T06:37:01;26.60;;;14.07;;
3355;SDS011;1691;52.486;13.374;2022-12-07T06:39:28;22.00;;;13.13;;
3355;SDS011;1691;52.486;13.374;2022-12-07T06:41:56;19.43;;;13.53;;
3355;SDS011;1691;52.486;13.374;2022-12-07T06:44:24;21.20;;;14.33;;
3355;SDS011;1691;52.486;13.374;2022-12-07T06:46:51;19.97;;;14.37;;
3355;SDS011;1691;52.486;13.374;2022-12-07T06:49:39;22.33;;;14.70;;
3355;SDS011;1691;52.486;13.374;2022-12-07T06:52:06;24.60;;;15.70;;
3355;SDS011;1691;52.486;13.374;2022-12-07T06:54:33;30.63;;;15.27;;
3355;SDS011;1691;52.486;13.374;2022-12-07T06:57:00;22.13;;;14.70;;
3355;SDS011;1691;52.486;13.374;2022-12-07T06:59:27;28.53;;;15.97;;
3355;SDS011;1691;52.486;13.374;2022-12-07T07:01:54;22.97;;;15.47;;
3355;SDS011;1691;52.486;13.374;2022-12-07T07:04:21;28.53;;;15.73;;
3355;SDS011;1691;52.486;13.374;2022-12-07T07:06:48;23.07;;;15.50;;
3355;SDS011;1691;52.486;13.374;2022-12-07T07:09:21;24.73;;;15.73;;
3355;SDS011;1691;52.486;13.374;2022-12-07T07:11:48;32.77;;;12.30;;
3355;SDS011;1691;52.486;13.374;2022-12-07T07:14:15;20.40;;;14.20;;
3355;SDS011;1691;52.486;13.374;2022-12-07T07:16:45;36.50;;;20.50;;
3355;SDS011;1691;52.486;13.374;2022-12-07T07:19:12;34.60;;;19.30;;
3355;SDS011;1691;52.486;13.374;2022-12-07T07:21:39;20.13;;;14.63;;
3355;SDS011;1691;52.486;13.374;2022-12-07T07:24:06;34.43;;;18.23;;
3355;SDS011;1691;52.486;13.374;2022-12-07T07:26:33;28.50;;;15.10;;
3355;SDS011;1691;52.486;13.374;2022-12-07T07:29:00;24.07;;;15.00;;
3355;SDS011;1691;52.486;13.374;2022-12-07T07:31:27;23.23;;;15.27;;
3355;SDS011;1691;52.486;13.374;2022-12-07T07:33:54;18.07;;;12.93;;
3355;SDS011;1691;52.486;13.374;2022-12-07T07:36:21;16.40;;;12.20;;
3355;SDS011;1691;52.486;13.374;2022-12-07T07:38:48;18.43;;;12.03;;
3355;SDS011;1691;52.486;13.374;2022-12-07T07:41:15;23.50;;;12.30;;
3355;SDS011;1691;52.486;13.374;2022-12-07T07:43:42;15.83;;;11.47;;
3355;SDS011;1691;52.486;13.374;2022-12-07T07:46:09;18.47;;;12.53;;
3355;SDS011;1691;52.486;13.374;2022-12-07T07:48:37;18.43;;;10.63;;
3355;SDS011;1691;52.486;13.374;2022-12-07T07:51:07;18.63;;;11.63;;
3355;SDS011;1691;52.486;13.374;2022-12-07T07:53:34;15.03;;;11.27;;
3355;SDS011;1691;52.486;13.374;2022-12-07T07:56:01;17.67;;;11.70;;
3355;SDS011;1691;52.486;13.374;2022-12-07T07:58:28;13.47;;;10.83;;
3355;SDS011;1691;52.486;13.374;2022-12-07T08:00:56;20.40;;;11.43;;
3355;SDS011;1691;52.486;13.374;2022-12-07T08:03:23;13.60;;;10.27;;
3355;SDS011;1691;52.486;13.374;2022-12-07T08:05:50;9.47;;;7.97;;
3355;SDS011;1691;52.486;13.374;2022-12-07T08:08:17;11.23;;;8.67;;
3355;SDS011;1691;52.486;13.374;2022-12-07T08:10:44;8.70;;;7.83;;
3355;SDS011;1691;52.486;13.374;2022-12-07T08:13:11;12.30;;;8.07;;
3355;SDS011;1691;52.486;13.374;2022-12-07T08:15:40;7.80;;;7.03;;
3355;SDS011;1691;52.486;13.374;2022-12-07T08:18:14;7.70;;;6.90;;
3355;SDS011;1691;52.486;13.374;2022-12-07T08:20:42;6.80;;;6.13;;
3355;SDS011;1691;52.486;13.374;2022-12-07T08:23:09;8.10;;;7.00;;
3355;SDS011;1691;52.486;13.374;2022-12-07T08:25:37;7.53;;;6.80;;
3355;SDS011;1691;52.486;13.374;2022-12-07T08:28:04;6.30;;;5.70;;
3355;SDS011;1691;52.486;13.374;2022-12-07T08:30:32;6.50;;;6.10;;
3355;SDS011;1691;52.486;13.374;2022-12-07T08:32:59;4.43;;;4.13;;
3355;SDS011;1691;52.486;13.374;2022-12-07T08:35:27;5.27;;;4.97;;
3355;SDS011;1691;52.486;13.374;2022-12-07T08:37:54;3.90;;;3.70;;
3355;SDS011;1691;52.486;13.374;2022-12-07T08:40:23;3.87;;;3.07;;
3355;SDS011;1691;52.486;13.374;2022-12-07T08:42:50;14.17;;;8.87;;
3355;SDS011;1691;52.486;13.374;2022-12-07T08:45:18;3.17;;;2.80;;
3355;SDS011;1691;52.486;13.374;2022-12-07T08:47:55;3.20;;;2.90;;
3355;SDS011;1691;52.486;13.374;2022-12-07T08:50:29;2.27;;;2.07;;
3355;SDS011;1691;52.486;13.374;2022-12-07T08:52:57;2.20;;;1.97;;
3355;SDS011;1691;52.486;13.374;2022-12-07T08:55:26;2.90;;;2.00;;
3355;SDS011;1691;52.486;13.374;2022-12-07T08:57:55;1.47;;;1.47;;
3355;SDS011;1691;52.486;13.374;2022-12-07T09:00:25;2.13;;;2.03;;
3355;SDS011;1691;52.486;13.374;2022-12-07T09:02:53;1.90;;;1.80;;
3355;SDS011;1691;52.486;13.374;2022-12-07T09:05:20;2.50;;;2.40;;
3355;SDS011;1691;52.486;13.374;2022-12-07T09:07:49;1.90;;;1.80;;
3355;SDS011;1691;52.486;13.374;2022-12-07T09:10:21;2.10;;;1.83;;
3355;SDS011;1691;52.486;13.374;2022-12-07T09:12:49;2.17;;;2.07;;
3355;SDS011;1691;52.486;13.374;2022-12-07T09:15:16;12.43;;;1.70;;
3355;SDS011;1691;52.486;13.374;2022-12-07T09:17:43;1.20;;;1.20;;
3355;SDS011;1691;52.486;13.374;2022-12-07T09:20:11;1.83;;;1.73;;
3355;SDS011;1691;52.486;13.374;2022-12-07T09:22:38;1.70;;;1.60;;
3355;SDS011;1691;52.486;13.374;2022-12-07T09:25:05;1.63;;;1.63;;
3355;SDS011;1691;52.486;13.374;2022-12-07T09:27:33;2.20;;;2.10;;
3355;SDS011;1691;52.486;13.374;2022-12-07T09:30:00;1.97;;;1.87;;
3355;SDS011;1691;52.486;13.374;2022-12-07T09:32:28;2.10;;;2.00;;
3355;SDS011;1691;52.486;13.374;2022-12-07T09:34:55;1.73;;;1.63;;
3355;SDS011;1691;52.486;13.374;2022-12-07T09:37:22;2.60;;;2.30;;
3355;SDS011;1691;52.486;13.374;2022-12-07T09:39:50;2.10;;;2.00;;
3355;SDS011;1691;52.486;13.374;2022-12-07T09:42:27;1.83;;;1.73;;
3355;SDS011;1691;52.486;13.374;2022-12-07T09:45:00;1.90;;;1.80;;
3355;SDS011;1691;52.486;13.374;2022-12-07T09:47:29;1.93;;;1.83;;
3355;SDS011;1691;52.486;13.374;2022-12-07T09:50:00;1.80;;;1.70;;
3355;SDS011;1691;52.486;13.374;2022-12-07T09:52:43;2.30;;;2.03;;
3355;SDS011;1691;52.486;13.374;2022-12-07T09:55:13;3.90;;;3.03;;
3355;SDS011;1691;52.486;13.374;2022-12-07T09:57:46;2.70;;;2.60;;
3355;SDS011;1691;52.486;13.374;2022-12-07T10:00:15;2.30;;;2.20;;
3355;SDS011;1691;52.486;13.374;2022-12-07T10:02:46;2.43;;;2.33;;
3355;SDS011;1691;52.486;13.374;2022-12-07T10:05:21;2.30;;;2.20;;
3355;SDS011;1691;52.486;13.374;2022-12-07T10:07:55;3.97;;;3.73;;
3355;SDS011;1691;52.486;13.374;2022-12-07T10:10:23;4.90;;;4.60;;
3355;SDS011;1691;52.486;13.374;2022-12-07T10:13:07;2.30;;;2.20;;
3355;SDS011;1691;52.486;13.374;2022-12-07T10:15:51;2.23;;;2.13;;
3355;SDS011;1691;52.486;13.374;2022-12-07T10:18:36;1.70;;;1.60;;
3355;SDS011;1691;52.486;13.374;2022-12-07T10:26:33;2.43;;;2.23;;
3355;SDS011;1691;52.486;13.374;2022-12-07T10:29:46;2.30;;;2.20;;
3355;SDS011;1691;52.486;13.374;2022-12-07T10:32:04;3.63;;;2.40;;
3355;SDS011;1691;52.486;13.374;2022-12-07T10:34:34;2.40;;;2.20;;
3355;SDS011;1691;52.486;13.374;2022-12-07T10:42:19;2.60;;;2.40;;
3355;SDS011;1691;52.486;13.374;2022-12-07T10:44:50;2.80;;;2.17;;
3355;SDS011;1691;52.486;13.374;2022-12-07T10:58:51;2.17;;;2.07;;
3355;SDS011;1691;52.486;13.374;2022-12-07T11:07:12;3.70;;;2.30;;
3355;SDS011;1691;52.486;13.374;2022-12-07T11:10:26;3.90;;;2.60;;
3355;SDS011;1691;52.486;13.374;2022-12-07T11:22:01;2.77;;;2.57;;
3355;SDS011;1691;52.486;13.374;2022-12-07T11:24:52;2.70;;;2.50;;
3355;SDS011;1691;52.486;13.374;2022-12-07T11:30:22;2.30;;;2.20;;
3355;SDS011;1691;52.486;13.374;2022-12-07T11:38:47;2.57;;;2.47;;
3355;SDS011;1691;52.486;13.374;2022-12-07T11:41:38;2.40;;;2.30;;
3355;SDS011;1691;52.486;13.374;2022-12-07T11:44:15;2.60;;;2.50;;
3355;SDS011;1691;52.486;13.374;2022-12-07T11:47:08;2.50;;;2.40;;
3355;SDS011;1691;52.486;13.374;2022-12-07T11:49:47;26.73;;;14.20;;
3355;SDS011;1691;52.486;13.374;2022-12-07T11:53:00;42.10;;;22.23;;
3355;SDS011;1691;52.486;13.374;2022-12-07T12:01:26;3.87;;;2.97;;
3355;SDS011;1691;52.486;13.374;2022-12-07T12:06:38;12.33;;;8.00;;
3355;SDS011;1691;52.486;13.374;2022-12-07T12:09:14;4.60;;;4.30;;
3355;SDS011;1691;52.486;13.374;2022-12-07T12:21:08;2.17;;;1.87;;
3355;SDS011;1691;52.486;13.374;2022-12-07T12:24:00;2.00;;;1.90;;
3355;SDS011;1691;52.486;13.374;2022-12-07T12:26:37;3.80;;;2.10;;
3355;SDS011;1691;52.486;13.374;2022-12-07T12:32:53;2.13;;;1.93;;
3355;SDS011;1691;52.486;13.374;2022-12-07T12:37:49;2.30;;;1.77;;
3355;SDS011;1691;52.486;13.374;2022-12-07T12:42:50;8.03;;;2.80;;
3355;SDS011;1691;52.486;13.374;2022-12-07T12:45:23;2.27;;;1.97;;
3355;SDS011;1691;52.486;13.374;2022-12-07T12:47:59;1.73;;;1.63;;
3355;SDS011;1691;52.486;13.374;2022-12-07T12:53:00;2.00;;;1.90;;
3355;SDS011;1691;52.486;13.374;2022-12-07T13:02:36;2.23;;;2.13;;
3355;SDS011;1691;52.486;13.374;2022-12-07T13:05:26;1.57;;;1.47;;
3355;SDS011;1691;52.486;13.374;2022-12-07T13:08:00;2.27;;;1.70;;
3355;SDS011;1691;52.486;13.374;2022-12-07T13:10:48;33.70;;;16.90;;
3355;SDS011;1691;52.486;13.374;2022-12-07T13:29:14;3.10;;;2.10;;
3355;SDS011;1691;52.486;13.374;2022-12-07T13:34:35;6.00;;;1.83;;
3355;SDS011;1691;52.486;13.374;2022-12-07T13:39:46;8.20;;;2.30;;
3355;SDS011;1691;52.486;13.374;2022-12-07T13:42:30;3.60;;;1.70;;
3355;SDS011;1691;52.486;13.374;2022-12-07T13:45:00;1.93;;;1.50;;
3355;SDS011;1691;52.486;13.374;2022-12-07T13:48:53;2.10;;;1.73;;
3355;SDS011;1691;52.486;13.374;2022-12-07T13:53:53;13.93;;;7.80;;
3355;SDS011;1691;52.486;13.374;2022-12-07T13:56:34;3.37;;;2.07;;
3355;SDS011;1691;52.486;13.374;2022-12-07T13:59:02;1.70;;;1.60;;
3355;SDS011;1691;52.486;13.374;2022-12-07T14:01:34;2.83;;;1.83;;
3355;SDS011;1691;52.486;13.374;2022-12-07T14:04:27;3.17;;;1.90;;
3355;SDS011;1691;52.486;13.374;2022-12-07T14:07:18;4.43;;;1.80;;
3355;SDS011;1691;52.486;13.374;2022-12-07T14:09:55;5.40;;;1.87;;
3355;SDS011;1691;52.486;13.374;2022-12-07T14:12:28;2.97;;;2.77;;
3355;SDS011;1691;52.486;13.374;2022-12-07T14:14:57;3.53;;;1.67;;
3355;SDS011;1691;52.486;13.374;2022-12-07T14:17:27;1.30;;;1.23;;
3355;SDS011;1691;52.486;13.374;2022-12-07T14:19:55;4.47;;;1.60;;
3355;SDS011;1691;52.486;13.374;2022-12-07T14:22:24;5.63;;;1.40;;
3355;SDS011;1691;52.486;13.374;2022-12-07T14:25:09;4.10;;;2.13;;
3355;SDS011;1691;52.486;13.374;2022-12-07T14:30:28;1.53;;;1.43;;
3355;SDS011;1691;52.486;13.374;2022-12-07T14:32:59;4.13;;;1.87;;
3355;SDS011;1691;52.486;13.374;2022-12-07T14:35:29;7.10;;;1.93;;
3355;SDS011;1691;52.486;13.374;2022-12-07T14:37:58;1.60;;;1.50;;
3355;SDS011;1691;52.486;13.374;2022-12-07T14:40:28;2.07;;;1.47;;
3355;SDS011;1691;52.486;13.374;2022-12-07T14:42:57;3.47;;;1.50;;
3355;SDS011;1691;52.486;13.374;2022-12-07T14:45:29;7.43;;;1.53;;
3355;SDS011;1691;52.486;13.374;2022-12-07T14:47:56;1.83;;;1.67;;
3355;SDS011;1691;52.486;13.374;2022-12-07T14:50:49;3.57;;;2.07;;
3355;SDS011;1691;52.486;13.374;2022-12-07T14:53:41;9.30;;;1.70;;
3355;SDS011;1691;52.486;13.374;2022-12-07T14:56:22;3.37;;;1.93;;
3355;SDS011;1691;52.486;13.374;2022-12-07T14:58:50;2.60;;;2.07;;
3355;SDS011;1691;52.486;13.374;2022-12-07T15:01:17;3.07;;;1.80;;
3355;SDS011;1691;52.486;13.374;2022-12-07T15:03:44;4.10;;;1.77;;
3355;SDS011;1691;52.486;13.374;2022-12-07T15:06:16;2.17;;;1.53;;
3355;SDS011;1691;52.486;13.374;2022-12-07T15:08:44;4.67;;;1.87;;
3355;SDS011;1691;52.486;13.374;2022-12-07T15:11:13;2.03;;;1.93;;
3355;SDS011;1691;52.486;13.374;2022-12-07T15:13:42;3.63;;;2.70;;
3355;SDS011;1691;52.486;13.374;2022-12-07T15:16:28;1.50;;;1.40;;
3355;SDS011;1691;52.486;13.374;2022-12-07T15:19:21;1.70;;;1.60;;
3355;SDS011;1691;52.486;13.374;2022-12-07T15:21:54;4.50;;;2.50;;
3355;SDS011;1691;52.486;13.374;2022-12-07T15:24:22;3.13;;;1.80;;
3355;SDS011;1691;52.486;13.374;2022-12-07T15:26:50;3.90;;;1.80;;
3355;SDS011;1691;52.486;13.374;2022-12-07T15:29:18;2.90;;;1.90;;
3355;SDS011;1691;52.486;13.374;2022-12-07T15:31:49;3.70;;;1.97;;
3355;SDS011;1691;52.486;13.374;2022-12-07T15:34:23;4.90;;;3.17;;
3355;SDS011;1691;52.486;13.374;2022-12-07T15:36:51;7.80;;;2.60;;
3355;SDS011;1691;52.486;13.374;2022-12-07T15:39:18;4.13;;;1.80;;
3355;SDS011;1691;52.486;13.374;2022-12-07T15:41:45;7.77;;;2.83;;
3355;SDS011;1691;52.486;13.374;2022-12-07T15:44:13;1.90;;;1.80;;
3355;SDS011;1691;52.486;13.374;2022-12-07T15:46:59;2.07;;;1.97;;
3355;SDS011;1691;52.486;13.374;2022-12-07T15:49:27;4.83;;;2.20;;
3355;SDS011;1691;52.486;13.374;2022-12-07T15:51:54;3.33;;;2.20;;
3355;SDS011;1691;52.486;13.374;2022-12-07T15:54:26;2.20;;;1.90;;
3355;SDS011;1691;52.486;13.374;2022-12-07T15:56:55;5.27;;;2.77;;
3355;SDS011;1691;52.486;13.374;2022-12-07T15:59:22;42.23;;;16.03;;
3355;SDS011;1691;52.486;13.374;2022-12-07T16:01:50;5.70;;;2.27;;
3355;SDS011;1691;52.486;13.374;2022-12-07T16:04:17;7.67;;;2.83;;
3355;SDS011;1691;52.486;13.374;2022-12-07T16:06:44;5.47;;;2.43;;
3355;SDS011;1691;52.486;13.374;2022-12-07T16:09:12;3.80;;;2.70;;
3355;SDS011;1691;52.486;13.374;2022-12-07T16:11:39;4.63;;;2.10;;
3355;SDS011;1691;52.486;13.374;2022-12-07T16:14:06;4.10;;;2.20;;
3355;SDS011;1691;52.486;13.374;2022-12-07T16:16:33;1.70;;;1.60;;
3355;SDS011;1691;52.486;13.374;2022-12-07T16:19:00;1.80;;;1.70;;
3355;SDS011;1691;52.486;13.374;2022-12-07T16:21:27;3.63;;;2.17;;
3355;SDS011;1691;52.486;13.374;2022-12-07T16:23:56;5.40;;;2.13;;
3355;SDS011;1691;52.486;13.374;2022-12-07T16:26:24;26.10;;;10.53;;
3355;SDS011;1691;52.486;13.374;2022-12-07T16:28:52;4.03;;;2.80;;
3355;SDS011;1691;52.486;13.374;2022-12-07T16:31:22;6.67;;;1.90;;
3355;SDS011;1691;52.486;13.374;2022-12-07T16:33:53;6.03;;;2.20;;
3355;SDS011;1691;52.486;13.374;2022-12-07T16:36:23;6.03;;;2.63;;
3355;SDS011;1691;52.486;13.374;2022-12-07T16:39:13;6.67;;;2.07;;
3355;SDS011;1691;52.486;13.374;2022-12-07T16:41:40;2.73;;;2.00;;
3355;SDS011;1691;52.486;13.374;2022-12-07T16:44:09;7.83;;;2.20;;
3355;SDS011;1691;52.486;13.374;2022-12-07T16:46:38;5.87;;;2.37;;
3355;SDS011;1691;52.486;13.374;2022-12-07T16:49:08;6.40;;;2.37;;
3355;SDS011;1691;52.486;13.374;2022-12-07T16:51:40;8.83;;;2.47;;
3355;SDS011;1691;52.486;13.374;2022-12-07T16:54:09;2.20;;;2.10;;
3355;SDS011;1691;52.486;13.374;2022-12-07T16:56:38;8.57;;;5.80;;
3355;SDS011;1691;52.486;13.374;2022-12-07T16:59:05;5.50;;;3.40;;
3355;SDS011;1691;52.486;13.374;2022-12-07T17:01:32;13.83;;;7.80;;
3355;SDS011;1691;52.486;13.374;2022-12-07T17:04:00;9.03;;;2.60;;
3355;SDS011;1691;52.486;13.374;2022-12-07T17:06:29;4.60;;;2.07;;
3355;SDS011;1691;52.486;13.374;2022-12-07T17:08:57;2.97;;;2.57;;
3355;SDS011;1691;52.486;13.374;2022-12-07T17:11:25;3.20;;;1.87;;
3355;SDS011;1691;52.486;13.374;2022-12-07T17:13:55;5.53;;;2.07;;
3355;SDS011;1691;52.486;13.374;2022-12-07T17:16:41;3.23;;;2.90;;
3355;SDS011;1691;52.486;13.374;2022-12-07T17:19:09;5.53;;;2.07;;
3355;SDS011;1691;52.486;13.374;2022-12-07T17:21:39;3.10;;;2.80;;
3355;SDS011;1691;52.486;13.374;2022-12-07T17:24:09;5.40;;;2.50;;
3355;SDS011;1691;52.486;13.374;2022-12-07T17:26:39;3.37;;;2.40;;
3355;SDS011;1691;52.486;13.374;2022-12-07T17:29:08;3.20;;;2.10;;
3355;SDS011;1691;52.486;13.374;2022-12-07T17:31:38;5.00;;;2.37;;
3355;SDS011;1691;52.486;13.374;2022-12-07T17:34:11;5.70;;;3.07;;
3355;SDS011;1691;52.486;13.374;2022-12-07T17:36:39;8.13;;;1.90;;
3355;SDS011;1691;52.486;13.374;2022-12-07T17:39:08;6.53;;;2.50;;
3355;SDS011;1691;52.486;13.374;2022-12-07T17:41:37;6.33;;;4.40;;
3355;SDS011;1691;52.486;13.374;2022-12-07T17:44:23;5.47;;;3.43;;
3355;SDS011;1691;52.486;13.374;2022-12-07T17:46:51;6.93;;;2.37;;
3355;SDS011;1691;52.486;13.374;2022-12-07T17:49:20;8.13;;;2.20;;
3355;SDS011;1691;52.486;13.374;2022-12-07T17:51:47;3.67;;;2.10;;
3355;SDS011;1691;52.486;13.374;2022-12-07T17:54:33;2.30;;;2.20;;